sensor_id;sensor_type;location;lat;lon;timestamp;P1;durP1;ratioP1;P2;durP2;ratioP2
6388;SDS011;3227;42.654;23.360;2023-03-01T00:01:11;6.50;;;3.97;;
6388;SDS011;3227;42.654;23.360;2023-03-01T00:03:40;6.87;;;4.40;;
6388;SDS011;3227;42.654;23.360;2023-03-01T00:06:08;7.83;;;4.37;;
6388;SDS011;3227;42.654;23.360;2023-03-01T00:08:35;7.47;;;4.57;;
6388;SDS011;3227;42.654;23.360;2023-03-01T00:11:03;6.57;;;4.30;;
6388;SDS011;3227;42.654;23.360;2023-03-01T00:13:32;7.23;;;4.50;;
6388;SDS011;3227;42.654;23.360;2023-03-01T00:16:01;6.53;;;4.03;;
6388;SDS011;3227;42.654;23.360;2023-03-01T00:18:28;6.97;;;4.10;;
6388;SDS011;3227;42.654;23.360;2023-03-01T00:20:57;5.90;;;3.73;;
6388;SDS011;3227;42.654;23.360;2023-03-01T00:23:23;5.70;;;3.60;;
6388;SDS011;3227;42.654;23.360;2023-03-01T00:25:51;6.07;;;3.90;;
6388;SDS011;3227;42.654;23.360;2023-03-01T00:28:18;6.90;;;4.10;;
6388;SDS011;3227;42.654;23.360;2023-03-01T00:30:45;6.53;;;3.93;;
6388;SDS011;3227;42.654;23.360;2023-03-01T00:33:12;6.10;;;3.73;;
6388;SDS011;3227;42.654;23.360;2023-03-01T00:35:39;6.57;;;4.20;;
6388;SDS011;3227;42.654;23.360;2023-03-01T00:38:07;7.00;;;4.37;;
6388;SDS011;3227;42.654;23.360;2023-03-01T00:40:35;8.83;;;3.90;;
6388;SDS011;3227;42.654;23.360;2023-03-01T00:43:03;6.93;;;3.87;;
6388;SDS011;3227;42.654;23.360;2023-03-01T00:45:31;6.63;;;3.90;;
6388;SDS011;3227;42.654;23.360;2023-03-01T00:47:59;5.60;;;3.37;;
6388;SDS011;3227;42.654;23.360;2023-03-01T00:50:26;5.67;;;3.70;;
6388;SDS011;3227;42.654;23.360;2023-03-01T00:52:53;6.23;;;3.70;;
6388;SDS011;3227;42.654;23.360;2023-03-01T00:55:21;5.87;;;3.70;;
6388;SDS011;3227;42.654;23.360;2023-03-01T00:57:48;6.17;;;3.80;;
6388;SDS011;3227;42.654;23.360;2023-03-01T01:00:15;5.67;;;3.50;;
6388;SDS011;3227;42.654;23.360;2023-03-01T01:02:43;6.10;;;3.60;;
6388;SDS011;3227;42.654;23.360;2023-03-01T01:05:10;5.80;;;3.50;;
6388;SDS011;3227;42.654;23.360;2023-03-01T01:07:42;7.17;;;3.70;;
6388;SDS011;3227;42.654;23.360;2023-03-01T01:10:09;4.63;;;3.10;;
6388;SDS011;3227;42.654;23.360;2023-03-01T01:12:43;7.43;;;3.00;;
6388;SDS011;3227;42.654;23.360;2023-03-01T01:15:10;5.30;;;3.30;;
6388;SDS011;3227;42.654;23.360;2023-03-01T01:17:39;5.50;;;3.00;;
6388;SDS011;3227;42.654;23.360;2023-03-01T01:20:06;4.50;;;3.07;;
6388;SDS011;3227;42.654;23.360;2023-03-01T01:22:34;5.23;;;3.40;;
6388;SDS011;3227;42.654;23.360;2023-03-01T01:25:01;4.97;;;3.07;;
6388;SDS011;3227;42.654;23.360;2023-03-01T01:27:28;4.50;;;2.87;;
6388;SDS011;3227;42.654;23.360;2023-03-01T01:29:57;5.17;;;2.97;;
6388;SDS011;3227;42.654;23.360;2023-03-01T01:32:23;4.00;;;2.67;;
6388;SDS011;3227;42.654;23.360;2023-03-01T01:34:50;3.67;;;2.50;;
6388;SDS011;3227;42.654;23.360;2023-03-01T01:37:17;4.27;;;2.90;;
6388;SDS011;3227;42.654;23.360;2023-03-01T01:39:44;4.87;;;2.90;;
6388;SDS011;3227;42.654;23.360;2023-03-01T01:42:11;4.20;;;2.70;;
6388;SDS011;3227;42.654;23.360;2023-03-01T01:44:42;5.47;;;2.80;;
6388;SDS011;3227;42.654;23.360;2023-03-01T01:47:14;3.53;;;2.50;;
6388;SDS011;3227;42.654;23.360;2023-03-01T01:49:44;3.77;;;2.60;;
6388;SDS011;3227;42.654;23.360;2023-03-01T01:52:14;3.57;;;2.50;;
6388;SDS011;3227;42.654;23.360;2023-03-01T01:54:46;5.23;;;2.90;;
6388;SDS011;3227;42.654;23.360;2023-03-01T01:57:18;4.00;;;2.80;;
6388;SDS011;3227;42.654;23.360;2023-03-01T01:59:49;4.33;;;2.77;;
6388;SDS011;3227;42.654;23.360;2023-03-01T02:02:19;3.33;;;2.50;;
6388;SDS011;3227;42.654;23.360;2023-03-01T02:04:47;4.40;;;2.77;;
6388;SDS011;3227;42.654;23.360;2023-03-01T02:07:17;4.30;;;2.77;;
6388;SDS011;3227;42.654;23.360;2023-03-01T02:09:47;4.83;;;2.70;;
6388;SDS011;3227;42.654;23.360;2023-03-01T02:12:16;3.40;;;2.47;;
6388;SDS011;3227;42.654;23.360;2023-03-01T02:14:44;3.37;;;2.57;;
6388;SDS011;3227;42.654;23.360;2023-03-01T02:17:11;3.93;;;2.70;;
6388;SDS011;3227;42.654;23.360;2023-03-01T02:19:47;4.13;;;2.90;;
6388;SDS011;3227;42.654;23.360;2023-03-01T02:22:24;4.00;;;2.70;;
6388;SDS011;3227;42.654;23.360;2023-03-01T02:25:00;3.67;;;2.60;;
6388;SDS011;3227;42.654;23.360;2023-03-01T02:27:38;3.77;;;2.73;;
6388;SDS011;3227;42.654;23.360;2023-03-01T02:30:11;4.33;;;2.70;;
6388;SDS011;3227;42.654;23.360;2023-03-01T02:32:38;3.23;;;2.50;;
6388;SDS011;3227;42.654;23.360;2023-03-01T02:35:07;5.93;;;3.00;;
6388;SDS011;3227;42.654;23.360;2023-03-01T02:37:35;4.10;;;2.73;;
6388;SDS011;3227;42.654;23.360;2023-03-01T02:40:03;4.07;;;2.57;;
6388;SDS011;3227;42.654;23.360;2023-03-01T02:42:40;4.70;;;2.90;;
6388;SDS011;3227;42.654;23.360;2023-03-01T02:45:14;5.23;;;3.30;;
6388;SDS011;3227;42.654;23.360;2023-03-01T02:47:40;4.87;;;3.00;;
6388;SDS011;3227;42.654;23.360;2023-03-01T02:50:15;4.40;;;3.00;;
6388;SDS011;3227;42.654;23.360;2023-03-01T02:52:53;5.97;;;3.50;;
6388;SDS011;3227;42.654;23.360;2023-03-01T02:55:23;5.40;;;3.33;;
6388;SDS011;3227;42.654;23.360;2023-03-01T02:57:50;6.80;;;3.27;;
6388;SDS011;3227;42.654;23.360;2023-03-01T03:00:19;4.90;;;3.20;;
6388;SDS011;3227;42.654;23.360;2023-03-01T03:02:51;5.50;;;3.67;;
6388;SDS011;3227;42.654;23.360;2023-03-01T03:05:20;5.63;;;3.87;;
6388;SDS011;3227;42.654;23.360;2023-03-01T03:07:49;6.47;;;3.50;;
6388;SDS011;3227;42.654;23.360;2023-03-01T03:10:18;10.47;;;4.27;;
6388;SDS011;3227;42.654;23.360;2023-03-01T03:12:50;6.17;;;4.20;;
6388;SDS011;3227;42.654;23.360;2023-03-01T03:15:19;6.40;;;4.20;;
6388;SDS011;3227;42.654;23.360;2023-03-01T03:17:47;6.40;;;3.93;;
6388;SDS011;3227;42.654;23.360;2023-03-01T03:20:15;6.33;;;4.27;;
6388;SDS011;3227;42.654;23.360;2023-03-01T03:22:44;6.60;;;4.20;;
6388;SDS011;3227;42.654;23.360;2023-03-01T03:25:11;6.27;;;4.10;;
6388;SDS011;3227;42.654;23.360;2023-03-01T03:27:41;6.30;;;4.10;;
6388;SDS011;3227;42.654;23.360;2023-03-01T03:30:10;6.00;;;4.10;;
6388;SDS011;3227;42.654;23.360;2023-03-01T03:32:40;6.50;;;4.40;;
6388;SDS011;3227;42.654;23.360;2023-03-01T03:35:18;6.03;;;4.20;;
6388;SDS011;3227;42.654;23.360;2023-03-01T03:37:46;6.07;;;4.00;;
6388;SDS011;3227;42.654;23.360;2023-03-01T03:40:29;6.00;;;3.90;;
6388;SDS011;3227;42.654;23.360;2023-03-01T03:42:57;4.93;;;3.20;;
6388;SDS011;3227;42.654;23.360;2023-03-01T03:45:24;5.70;;;3.33;;
6388;SDS011;3227;42.654;23.360;2023-03-01T03:47:58;4.87;;;3.20;;
6388;SDS011;3227;42.654;23.360;2023-03-01T03:50:25;5.63;;;3.60;;
6388;SDS011;3227;42.654;23.360;2023-03-01T03:52:52;6.47;;;3.87;;
6388;SDS011;3227;42.654;23.360;2023-03-01T03:55:19;5.00;;;3.40;;
6388;SDS011;3227;42.654;23.360;2023-03-01T03:57:46;6.37;;;3.70;;
6388;SDS011;3227;42.654;23.360;2023-03-01T04:00:18;5.20;;;3.43;;
6388;SDS011;3227;42.654;23.360;2023-03-01T04:02:46;5.33;;;3.43;;
6388;SDS011;3227;42.654;23.360;2023-03-01T04:05:16;5.17;;;3.47;;
6388;SDS011;3227;42.654;23.360;2023-03-01T04:07:49;6.27;;;3.40;;
6388;SDS011;3227;42.654;23.360;2023-03-01T04:10:26;5.00;;;3.10;;
6388;SDS011;3227;42.654;23.360;2023-03-01T04:12:53;5.37;;;3.23;;
6388;SDS011;3227;42.654;23.360;2023-03-01T04:15:21;4.73;;;3.20;;
6388;SDS011;3227;42.654;23.360;2023-03-01T04:17:49;4.87;;;3.00;;
6388;SDS011;3227;42.654;23.360;2023-03-01T04:20:21;4.83;;;3.00;;
6388;SDS011;3227;42.654;23.360;2023-03-01T04:22:50;5.00;;;3.20;;
6388;SDS011;3227;42.654;23.360;2023-03-01T04:25:18;4.97;;;3.10;;
6388;SDS011;3227;42.654;23.360;2023-03-01T04:27:45;7.57;;;3.50;;
6388;SDS011;3227;42.654;23.360;2023-03-01T04:30:12;5.80;;;3.60;;
6388;SDS011;3227;42.654;23.360;2023-03-01T04:32:40;6.73;;;3.77;;
6388;SDS011;3227;42.654;23.360;2023-03-01T04:35:07;6.17;;;3.80;;
6388;SDS011;3227;42.654;23.360;2023-03-01T04:37:41;6.60;;;3.67;;
6388;SDS011;3227;42.654;23.360;2023-03-01T04:40:10;6.27;;;3.37;;
6388;SDS011;3227;42.654;23.360;2023-03-01T04:42:41;7.00;;;3.50;;
6388;SDS011;3227;42.654;23.360;2023-03-01T04:45:08;7.43;;;3.63;;
6388;SDS011;3227;42.654;23.360;2023-03-01T04:47:38;5.97;;;3.57;;
6388;SDS011;3227;42.654;23.360;2023-03-01T04:50:06;6.70;;;3.23;;
6388;SDS011;3227;42.654;23.360;2023-03-01T04:52:34;5.67;;;3.30;;
6388;SDS011;3227;42.654;23.360;2023-03-01T04:55:02;7.67;;;3.80;;
6388;SDS011;3227;42.654;23.360;2023-03-01T04:57:30;5.57;;;3.40;;
6388;SDS011;3227;42.654;23.360;2023-03-01T04:59:57;4.50;;;3.03;;
6388;SDS011;3227;42.654;23.360;2023-03-01T05:02:24;6.37;;;3.40;;
6388;SDS011;3227;42.654;23.360;2023-03-01T05:04:51;6.63;;;3.43;;
6388;SDS011;3227;42.654;23.360;2023-03-01T05:07:22;6.47;;;3.70;;
6388;SDS011;3227;42.654;23.360;2023-03-01T05:09:49;5.80;;;3.17;;
6388;SDS011;3227;42.654;23.360;2023-03-01T05:12:18;6.00;;;3.33;;
6388;SDS011;3227;42.654;23.360;2023-03-01T05:14:44;5.70;;;3.57;;
6388;SDS011;3227;42.654;23.360;2023-03-01T05:17:11;6.70;;;3.70;;
6388;SDS011;3227;42.654;23.360;2023-03-01T05:19:38;5.70;;;3.30;;
6388;SDS011;3227;42.654;23.360;2023-03-01T05:22:07;5.50;;;3.23;;
6388;SDS011;3227;42.654;23.360;2023-03-01T05:24:34;5.13;;;3.17;;
6388;SDS011;3227;42.654;23.360;2023-03-01T05:27:02;5.60;;;3.20;;
6388;SDS011;3227;42.654;23.360;2023-03-01T05:29:31;5.53;;;3.40;;
6388;SDS011;3227;42.654;23.360;2023-03-01T05:32:00;5.63;;;3.67;;
6388;SDS011;3227;42.654;23.360;2023-03-01T05:34:29;5.53;;;3.50;;
6388;SDS011;3227;42.654;23.360;2023-03-01T05:36:56;5.73;;;3.43;;
6388;SDS011;3227;42.654;23.360;2023-03-01T05:39:24;8.43;;;3.23;;
6388;SDS011;3227;42.654;23.360;2023-03-01T05:41:53;5.80;;;3.57;;
6388;SDS011;3227;42.654;23.360;2023-03-01T05:44:21;5.10;;;3.23;;
6388;SDS011;3227;42.654;23.360;2023-03-01T05:46:49;5.50;;;3.10;;
6388;SDS011;3227;42.654;23.360;2023-03-01T05:49:16;6.30;;;3.30;;
6388;SDS011;3227;42.654;23.360;2023-03-01T05:51:47;5.23;;;3.10;;
6388;SDS011;3227;42.654;23.360;2023-03-01T05:54:15;5.80;;;3.10;;
6388;SDS011;3227;42.654;23.360;2023-03-01T05:56:42;5.40;;;3.50;;
6388;SDS011;3227;42.654;23.360;2023-03-01T05:59:11;6.67;;;3.03;;
6388;SDS011;3227;42.654;23.360;2023-03-01T06:01:38;5.37;;;3.13;;
6388;SDS011;3227;42.654;23.360;2023-03-01T06:04:14;6.30;;;3.57;;
6388;SDS011;3227;42.654;23.360;2023-03-01T06:06:44;8.17;;;3.67;;
6388;SDS011;3227;42.654;23.360;2023-03-01T06:09:11;6.00;;;3.70;;
6388;SDS011;3227;42.654;23.360;2023-03-01T06:11:39;6.00;;;3.47;;
6388;SDS011;3227;42.654;23.360;2023-03-01T06:14:06;6.00;;;3.33;;
6388;SDS011;3227;42.654;23.360;2023-03-01T06:16:35;5.20;;;3.20;;
6388;SDS011;3227;42.654;23.360;2023-03-01T06:19:02;5.70;;;3.30;;
6388;SDS011;3227;42.654;23.360;2023-03-01T06:21:30;5.73;;;3.33;;
6388;SDS011;3227;42.654;23.360;2023-03-01T06:23:57;5.83;;;3.30;;
6388;SDS011;3227;42.654;23.360;2023-03-01T06:26:24;5.70;;;3.57;;
6388;SDS011;3227;42.654;23.360;2023-03-01T06:28:51;6.30;;;3.40;;
6388;SDS011;3227;42.654;23.360;2023-03-01T06:31:17;5.13;;;3.50;;
6388;SDS011;3227;42.654;23.360;2023-03-01T06:33:44;6.40;;;3.67;;
6388;SDS011;3227;42.654;23.360;2023-03-01T06:36:11;8.87;;;5.07;;
6388;SDS011;3227;42.654;23.360;2023-03-01T06:38:39;11.90;;;6.80;;
6388;SDS011;3227;42.654;23.360;2023-03-01T06:41:06;10.63;;;6.57;;
6388;SDS011;3227;42.654;23.360;2023-03-01T06:43:33;9.33;;;5.30;;
6388;SDS011;3227;42.654;23.360;2023-03-01T06:46:03;8.27;;;5.40;;
6388;SDS011;3227;42.654;23.360;2023-03-01T06:48:32;10.27;;;5.00;;
6388;SDS011;3227;42.654;23.360;2023-03-01T06:50:59;6.90;;;4.00;;
6388;SDS011;3227;42.654;23.360;2023-03-01T06:53:26;6.33;;;3.27;;
6388;SDS011;3227;42.654;23.360;2023-03-01T06:55:55;8.77;;;4.10;;
6388;SDS011;3227;42.654;23.360;2023-03-01T06:58:22;9.60;;;4.10;;
6388;SDS011;3227;42.654;23.360;2023-03-01T07:00:49;8.67;;;3.87;;
6388;SDS011;3227;42.654;23.360;2023-03-01T07:03:15;6.47;;;3.80;;
6388;SDS011;3227;42.654;23.360;2023-03-01T07:05:43;6.90;;;3.93;;
6388;SDS011;3227;42.654;23.360;2023-03-01T07:08:12;6.73;;;3.53;;
6388;SDS011;3227;42.654;23.360;2023-03-01T07:10:38;6.10;;;3.30;;
6388;SDS011;3227;42.654;23.360;2023-03-01T07:13:07;7.80;;;3.10;;
6388;SDS011;3227;42.654;23.360;2023-03-01T07:15:34;5.00;;;3.20;;
6388;SDS011;3227;42.654;23.360;2023-03-01T07:18:03;6.50;;;3.40;;
6388;SDS011;3227;42.654;23.360;2023-03-01T07:20:30;6.97;;;3.27;;
6388;SDS011;3227;42.654;23.360;2023-03-01T07:22:56;8.07;;;3.20;;
6388;SDS011;3227;42.654;23.360;2023-03-01T07:25:24;9.10;;;3.20;;
6388;SDS011;3227;42.654;23.360;2023-03-01T07:27:51;5.25;;;3.30;;
6388;SDS011;3227;42.654;23.360;2023-03-01T07:30:20;6.00;;;3.20;;
6388;SDS011;3227;42.654;23.360;2023-03-01T07:32:47;5.18;;;3.08;;
6388;SDS011;3227;42.654;23.360;2023-03-01T07:35:14;6.20;;;3.27;;
6388;SDS011;3227;42.654;23.360;2023-03-01T07:37:41;7.13;;;3.30;;
6388;SDS011;3227;42.654;23.360;2023-03-01T07:40:10;7.83;;;3.17;;
6388;SDS011;3227;42.654;23.360;2023-03-01T07:42:40;6.57;;;3.40;;
6388;SDS011;3227;42.654;23.360;2023-03-01T07:45:07;8.63;;;3.33;;
6388;SDS011;3227;42.654;23.360;2023-03-01T07:47:36;5.97;;;3.17;;
6388;SDS011;3227;42.654;23.360;2023-03-01T07:50:03;6.73;;;3.33;;
6388;SDS011;3227;42.654;23.360;2023-03-01T07:52:31;7.30;;;3.30;;
6388;SDS011;3227;42.654;23.360;2023-03-01T07:54:58;5.60;;;2.97;;
6388;SDS011;3227;42.654;23.360;2023-03-01T07:57:25;5.63;;;3.07;;
6388;SDS011;3227;42.654;23.360;2023-03-01T07:59:51;5.83;;;2.80;;
6388;SDS011;3227;42.654;23.360;2023-03-01T08:02:18;7.43;;;2.95;;
6388;SDS011;3227;42.654;23.360;2023-03-01T08:04:46;5.50;;;2.80;;
6388;SDS011;3227;42.654;23.360;2023-03-01T08:07:13;6.10;;;3.00;;
6388;SDS011;3227;42.654;23.360;2023-03-01T08:09:40;5.60;;;3.00;;
6388;SDS011;3227;42.654;23.360;2023-03-01T08:12:07;7.37;;;2.87;;
6388;SDS011;3227;42.654;23.360;2023-03-01T08:14:33;4.03;;;2.40;;
6388;SDS011;3227;42.654;23.360;2023-03-01T08:17:00;5.83;;;2.80;;
6388;SDS011;3227;42.654;23.360;2023-03-01T08:19:28;5.20;;;2.83;;
6388;SDS011;3227;42.654;23.360;2023-03-01T08:21:56;6.43;;;3.40;;
6388;SDS011;3227;42.654;23.360;2023-03-01T08:24:25;4.80;;;2.90;;
6388;SDS011;3227;42.654;23.360;2023-03-01T08:26:51;5.80;;;3.60;;
6388;SDS011;3227;42.654;23.360;2023-03-01T08:29:18;5.57;;;2.90;;
6388;SDS011;3227;42.654;23.360;2023-03-01T08:31:45;6.80;;;3.40;;
6388;SDS011;3227;42.654;23.360;2023-03-01T08:34:13;5.70;;;3.70;;
6388;SDS011;3227;42.654;23.360;2023-03-01T08:36:42;6.67;;;4.20;;
6388;SDS011;3227;42.654;23.360;2023-03-01T08:39:12;7.37;;;3.87;;
6388;SDS011;3227;42.654;23.360;2023-03-01T08:41:40;7.03;;;3.90;;
6388;SDS011;3227;42.654;23.360;2023-03-01T08:44:08;6.17;;;3.33;;
6388;SDS011;3227;42.654;23.360;2023-03-01T08:46:37;6.53;;;3.80;;
6388;SDS011;3227;42.654;23.360;2023-03-01T08:49:05;4.50;;;2.93;;
6388;SDS011;3227;42.654;23.360;2023-03-01T08:51:33;7.45;;;3.20;;
6388;SDS011;3227;42.654;23.360;2023-03-01T08:54:01;6.22;;;3.40;;
6388;SDS011;3227;42.654;23.360;2023-03-01T08:56:30;5.40;;;3.30;;
6388;SDS011;3227;42.654;23.360;2023-03-01T08:58:57;6.77;;;3.90;;
6388;SDS011;3227;42.654;23.360;2023-03-01T09:01:24;5.10;;;3.40;;
6388;SDS011;3227;42.654;23.360;2023-03-01T09:03:51;7.00;;;4.10;;
6388;SDS011;3227;42.654;23.360;2023-03-01T09:06:17;8.52;;;4.63;;
6388;SDS011;3227;42.654;23.360;2023-03-01T09:08:45;7.28;;;3.92;;
6388;SDS011;3227;42.654;23.360;2023-03-01T09:11:15;5.63;;;3.50;;
6388;SDS011;3227;42.654;23.360;2023-03-01T09:13:45;12.13;;;5.32;;
6388;SDS011;3227;42.654;23.360;2023-03-01T09:16:13;7.60;;;3.93;;
6388;SDS011;3227;42.654;23.360;2023-03-01T09:18:41;9.23;;;4.27;;
6388;SDS011;3227;42.654;23.360;2023-03-01T09:21:09;11.33;;;6.77;;
6388;SDS011;3227;42.654;23.360;2023-03-01T09:23:38;7.28;;;4.47;;
6388;SDS011;3227;42.654;23.360;2023-03-01T09:26:06;6.07;;;2.90;;
6388;SDS011;3227;42.654;23.360;2023-03-01T09:28:34;4.15;;;2.50;;
6388;SDS011;3227;42.654;23.360;2023-03-01T09:31:03;4.33;;;2.77;;
6388;SDS011;3227;42.654;23.360;2023-03-01T09:33:31;5.53;;;2.70;;
6388;SDS011;3227;42.654;23.360;2023-03-01T09:36:01;4.00;;;2.40;;
6388;SDS011;3227;42.654;23.360;2023-03-01T09:38:32;4.37;;;2.13;;
6388;SDS011;3227;42.654;23.360;2023-03-01T09:41:02;4.80;;;2.37;;
6388;SDS011;3227;42.654;23.360;2023-03-01T09:43:37;4.63;;;2.63;;
6388;SDS011;3227;42.654;23.360;2023-03-01T09:46:14;4.53;;;2.70;;
6388;SDS011;3227;42.654;23.360;2023-03-01T09:48:42;3.73;;;2.37;;
6388;SDS011;3227;42.654;23.360;2023-03-01T09:51:12;4.77;;;2.30;;
6388;SDS011;3227;42.654;23.360;2023-03-01T09:53:44;7.50;;;2.70;;
6388;SDS011;3227;42.654;23.360;2023-03-01T09:56:13;8.93;;;2.73;;
6388;SDS011;3227;42.654;23.360;2023-03-01T09:58:47;4.03;;;2.50;;
6388;SDS011;3227;42.654;23.360;2023-03-01T10:01:26;8.95;;;2.83;;
6388;SDS011;3227;42.654;23.360;2023-03-01T10:06:58;7.70;;;3.10;;
6388;SDS011;3227;42.654;23.360;2023-03-01T10:09:33;7.50;;;2.80;;
6388;SDS011;3227;42.654;23.360;2023-03-01T10:12:02;5.03;;;3.10;;
6388;SDS011;3227;42.654;23.360;2023-03-01T10:14:32;5.23;;;2.77;;
6388;SDS011;3227;42.654;23.360;2023-03-01T10:17:06;5.65;;;2.90;;
6388;SDS011;3227;42.654;23.360;2023-03-01T10:19:45;4.95;;;2.78;;
6388;SDS011;3227;42.654;23.360;2023-03-01T10:22:13;8.17;;;2.63;;
6388;SDS011;3227;42.654;23.360;2023-03-01T10:24:50;8.13;;;3.00;;
6388;SDS011;3227;42.654;23.360;2023-03-01T10:27:21;7.88;;;2.80;;
6388;SDS011;3227;42.654;23.360;2023-03-01T10:29:53;7.07;;;3.10;;
6388;SDS011;3227;42.654;23.360;2023-03-01T10:32:30;6.60;;;3.10;;
6388;SDS011;3227;42.654;23.360;2023-03-01T10:34:57;6.05;;;3.05;;
6388;SDS011;3227;42.654;23.360;2023-03-01T10:37:24;6.13;;;2.97;;
6388;SDS011;3227;42.654;23.360;2023-03-01T10:39:58;10.10;;;3.43;;
6388;SDS011;3227;42.654;23.360;2023-03-01T10:42:34;4.90;;;3.10;;
6388;SDS011;3227;42.654;23.360;2023-03-01T10:45:14;10.38;;;3.60;;
6388;SDS011;3227;42.654;23.360;2023-03-01T10:48:10;5.07;;;2.97;;
6388;SDS011;3227;42.654;23.360;2023-03-01T10:50:40;6.45;;;3.00;;
6388;SDS011;3227;42.654;23.360;2023-03-01T10:53:18;5.55;;;3.05;;
6388;SDS011;3227;42.654;23.360;2023-03-01T10:55:59;6.40;;;3.38;;
6388;SDS011;3227;42.654;23.360;2023-03-01T10:58:28;5.20;;;3.30;;
6388;SDS011;3227;42.654;23.360;2023-03-01T11:00:56;5.67;;;3.57;;
6388;SDS011;3227;42.654;23.360;2023-03-01T11:03:27;5.87;;;3.50;;
6388;SDS011;3227;42.654;23.360;2023-03-01T11:06:00;6.72;;;3.35;;
6388;SDS011;3227;42.654;23.360;2023-03-01T11:08:33;6.75;;;3.40;;
6388;SDS011;3227;42.654;23.360;2023-03-01T11:11:15;7.00;;;3.30;;
6388;SDS011;3227;42.654;23.360;2023-03-01T11:13:53;8.37;;;3.33;;
6388;SDS011;3227;42.654;23.360;2023-03-01T11:16:29;8.73;;;4.00;;
6388;SDS011;3227;42.654;23.360;2023-03-01T11:19:13;4.90;;;2.90;;
6388;SDS011;3227;42.654;23.360;2023-03-01T11:21:47;9.57;;;4.23;;
6388;SDS011;3227;42.654;23.360;2023-03-01T11:24:34;5.47;;;3.43;;
6388;SDS011;3227;42.654;23.360;2023-03-01T11:27:11;5.10;;;3.00;;
6388;SDS011;3227;42.654;23.360;2023-03-01T11:29:43;5.77;;;3.30;;
6388;SDS011;3227;42.654;23.360;2023-03-01T11:32:16;5.53;;;3.00;;
6388;SDS011;3227;42.654;23.360;2023-03-01T11:34:48;6.45;;;3.70;;
6388;SDS011;3227;42.654;23.360;2023-03-01T11:37:21;5.43;;;3.50;;
6388;SDS011;3227;42.654;23.360;2023-03-01T11:39:58;4.90;;;3.20;;
6388;SDS011;3227;42.654;23.360;2023-03-01T11:42:37;5.40;;;3.40;;
6388;SDS011;3227;42.654;23.360;2023-03-01T11:45:12;5.47;;;3.73;;
6388;SDS011;3227;42.654;23.360;2023-03-01T11:47:43;7.40;;;3.77;;
6388;SDS011;3227;42.654;23.360;2023-03-01T11:50:30;7.77;;;3.80;;
6388;SDS011;3227;42.654;23.360;2023-03-01T11:53:17;7.83;;;4.30;;
6388;SDS011;3227;42.654;23.360;2023-03-01T11:56:00;6.73;;;4.30;;
6388;SDS011;3227;42.654;23.360;2023-03-01T11:58:43;7.20;;;4.50;;
6388;SDS011;3227;42.654;23.360;2023-03-01T12:01:31;7.13;;;4.43;;
6388;SDS011;3227;42.654;23.360;2023-03-01T12:04:15;7.27;;;3.93;;
6388;SDS011;3227;42.654;23.360;2023-03-01T12:07:03;7.37;;;4.43;;
6388;SDS011;3227;42.654;23.360;2023-03-01T12:09:38;7.03;;;4.00;;
6388;SDS011;3227;42.654;23.360;2023-03-01T12:12:24;6.30;;;3.90;;
6388;SDS011;3227;42.654;23.360;2023-03-01T12:21:17;6.97;;;4.63;;
6388;SDS011;3227;42.654;23.360;2023-03-01T12:24:02;6.77;;;3.97;;
6388;SDS011;3227;42.654;23.360;2023-03-01T12:26:41;6.20;;;3.90;;
6388;SDS011;3227;42.654;23.360;2023-03-01T12:29:20;6.83;;;4.27;;
6388;SDS011;3227;42.654;23.360;2023-03-01T12:34:59;6.27;;;3.97;;
6388;SDS011;3227;42.654;23.360;2023-03-01T12:37:54;7.60;;;5.33;;
6388;SDS011;3227;42.654;23.360;2023-03-01T12:40:36;6.93;;;4.30;;
6388;SDS011;3227;42.654;23.360;2023-03-01T12:43:25;7.17;;;4.23;;
6388;SDS011;3227;42.654;23.360;2023-03-01T12:46:09;7.00;;;4.47;;
6388;SDS011;3227;42.654;23.360;2023-03-01T12:48:43;7.10;;;4.80;;
6388;SDS011;3227;42.654;23.360;2023-03-01T12:51:21;6.37;;;4.20;;
6388;SDS011;3227;42.654;23.360;2023-03-01T12:53:51;7.00;;;4.27;;
6388;SDS011;3227;42.654;23.360;2023-03-01T12:56:23;7.70;;;4.77;;
6388;SDS011;3227;42.654;23.360;2023-03-01T12:58:55;6.47;;;4.10;;
6388;SDS011;3227;42.654;23.360;2023-03-01T13:01:29;9.10;;;4.23;;
6388;SDS011;3227;42.654;23.360;2023-03-01T13:04:07;6.47;;;4.30;;
6388;SDS011;3227;42.654;23.360;2023-03-01T13:06:41;7.97;;;4.37;;
6388;SDS011;3227;42.654;23.360;2023-03-01T13:09:23;6.37;;;4.37;;
6388;SDS011;3227;42.654;23.360;2023-03-01T13:11:56;8.27;;;4.67;;
6388;SDS011;3227;42.654;23.360;2023-03-01T13:17:32;8.83;;;5.30;;
6388;SDS011;3227;42.654;23.360;2023-03-01T13:20:14;9.27;;;5.35;;
6388;SDS011;3227;42.654;23.360;2023-03-01T13:22:43;7.40;;;4.80;;
6388;SDS011;3227;42.654;23.360;2023-03-01T13:25:13;9.07;;;5.00;;
6388;SDS011;3227;42.654;23.360;2023-03-01T13:27:44;6.47;;;4.47;;
6388;SDS011;3227;42.654;23.360;2023-03-01T13:36:10;7.90;;;4.57;;
6388;SDS011;3227;42.654;23.360;2023-03-01T13:38:59;9.37;;;4.40;;
6388;SDS011;3227;42.654;23.360;2023-03-01T13:44:20;6.73;;;4.27;;
6388;SDS011;3227;42.654;23.360;2023-03-01T13:46:51;8.07;;;4.67;;
6388;SDS011;3227;42.654;23.360;2023-03-01T13:49:20;6.95;;;4.40;;
6388;SDS011;3227;42.654;23.360;2023-03-01T13:51:50;7.38;;;4.97;;
6388;SDS011;3227;42.654;23.360;2023-03-01T13:54:19;7.67;;;4.50;;
6388;SDS011;3227;42.654;23.360;2023-03-01T13:56:56;8.70;;;4.95;;
6388;SDS011;3227;42.654;23.360;2023-03-01T13:59:28;6.85;;;4.32;;
6388;SDS011;3227;42.654;23.360;2023-03-01T14:01:56;7.10;;;4.53;;
6388;SDS011;3227;42.654;23.360;2023-03-01T14:04:24;6.97;;;4.68;;
6388;SDS011;3227;42.654;23.360;2023-03-01T14:07:08;7.00;;;4.47;;
6388;SDS011;3227;42.654;23.360;2023-03-01T14:09:37;7.60;;;4.20;;
6388;SDS011;3227;42.654;23.360;2023-03-01T14:12:12;6.63;;;3.90;;
6388;SDS011;3227;42.654;23.360;2023-03-01T14:14:54;7.60;;;4.00;;
6388;SDS011;3227;42.654;23.360;2023-03-01T14:17:31;7.40;;;3.70;;
6388;SDS011;3227;42.654;23.360;2023-03-01T14:20:09;7.03;;;4.25;;
6388;SDS011;3227;42.654;23.360;2023-03-01T14:22:41;6.67;;;3.43;;
6388;SDS011;3227;42.654;23.360;2023-03-01T14:25:22;5.93;;;3.63;;
6388;SDS011;3227;42.654;23.360;2023-03-01T14:27:57;6.80;;;4.28;;
6388;SDS011;3227;42.654;23.360;2023-03-01T14:30:30;7.07;;;3.67;;
6388;SDS011;3227;42.654;23.360;2023-03-01T14:33:00;9.33;;;3.90;;
6388;SDS011;3227;42.654;23.360;2023-03-01T14:35:29;6.93;;;4.33;;
6388;SDS011;3227;42.654;23.360;2023-03-01T14:37:58;7.63;;;3.93;;
6388;SDS011;3227;42.654;23.360;2023-03-01T14:40:26;6.67;;;4.23;;
6388;SDS011;3227;42.654;23.360;2023-03-01T14:42:55;6.87;;;4.20;;
6388;SDS011;3227;42.654;23.360;2023-03-01T14:45:25;7.83;;;4.03;;
6388;SDS011;3227;42.654;23.360;2023-03-01T14:47:55;6.83;;;3.70;;
6388;SDS011;3227;42.654;23.360;2023-03-01T14:50:26;6.00;;;3.47;;
6388;SDS011;3227;42.654;23.360;2023-03-01T14:52:56;6.77;;;3.90;;
6388;SDS011;3227;42.654;23.360;2023-03-01T14:55:34;9.57;;;3.47;;
6388;SDS011;3227;42.654;23.360;2023-03-01T14:58:06;6.77;;;3.47;;
6388;SDS011;3227;42.654;23.360;2023-03-01T15:00:38;7.77;;;3.70;;
6388;SDS011;3227;42.654;23.360;2023-03-01T15:03:16;6.77;;;3.57;;
6388;SDS011;3227;42.654;23.360;2023-03-01T15:05:50;6.53;;;3.40;;
6388;SDS011;3227;42.654;23.360;2023-03-01T15:08:18;6.27;;;3.63;;
6388;SDS011;3227;42.654;23.360;2023-03-01T15:10:57;7.83;;;3.50;;
6388;SDS011;3227;42.654;23.360;2023-03-01T15:13:28;8.00;;;4.13;;
6388;SDS011;3227;42.654;23.360;2023-03-01T15:16:01;8.82;;;4.40;;
6388;SDS011;3227;42.654;23.360;2023-03-01T15:18:33;7.83;;;4.60;;
6388;SDS011;3227;42.654;23.360;2023-03-01T15:21:08;9.50;;;4.78;;
6388;SDS011;3227;42.654;23.360;2023-03-01T15:23:36;10.20;;;4.93;;
6388;SDS011;3227;42.654;23.360;2023-03-01T15:26:05;12.87;;;4.70;;
6388;SDS011;3227;42.654;23.360;2023-03-01T15:28:33;8.50;;;4.63;;
6388;SDS011;3227;42.654;23.360;2023-03-01T15:31:20;8.00;;;4.77;;
6388;SDS011;3227;42.654;23.360;2023-03-01T15:33:51;9.30;;;5.03;;
6388;SDS011;3227;42.654;23.360;2023-03-01T15:36:31;8.10;;;4.60;;
6388;SDS011;3227;42.654;23.360;2023-03-01T15:42:11;9.50;;;5.40;;
6388;SDS011;3227;42.654;23.360;2023-03-01T15:44:50;9.07;;;5.38;;
6388;SDS011;3227;42.654;23.360;2023-03-01T15:47:48;9.52;;;5.55;;
6388;SDS011;3227;42.654;23.360;2023-03-01T15:50:21;16.17;;;9.13;;